Terminal Aerodrome Forecast
Issued by NWS Twin Cities, MN

Home | Current Version | Previous Version | Graphics & Text | Print | Product List | Glossary On
Versions: 1 2 3 4 5 6 7 8 9 10 11 12 13 14 15 16 17 18
148
FTUS43 KMPX 232340
TAFEAU
TAF
KEAU 232340Z 2400/2424 15011KT P6SM VCSH OVC025
     FM240300 16007KT 6SM -SHRA OVC010
     FM240700 VRB03KT 2SM -SHRA OVC006
     FM241700 03006KT 3SM RA OVC010
     FM242100 03009KT P6SM VCSH OVC015=

USA.gov is the U.S. government's official web portal to all federal, state and local government web resources and services.